KELK/ELK METAR and TAF weather

Enter ICAO airport designator
Station Type Date Time Source
KELK METAR 2021/01/27 14:15 UTC NOAA

KELK 271415Z AUTO 36015KT 10SM OVC012 M02/M04 A3028 RMK AO2 T10211045


Station Type Date Time Source
KELK Decoded METAR 2021/01/27 14:15 UTC NOAA

Station name not available
Jan 27, 2021 - 09:15 AM EST / 2021.01.27 1415 UTC
Wind: from the N (360 degrees) at 17 MPH (15 KT):0
Visibility: 10 mile(s):0
Sky conditions: overcast
Temperature: 28.2 F (-2.1 C)
Windchill: 15 F (-9 C):1
Dew Point: 23.9 F (-4.5 C)
Relative Humidity: 83%
Pressure (altimeter): 30.28 in. Hg (1025 hPa)
ob: KELK 271415Z AUTO 36015KT 10SM OVC012 M02/M04 A3028 RMK AO2 T10211045
cycle: 14

Station Type Date Time Source
KELK TAF UTC NOAA

Error!

Example: see airport list